Time;durP1;ratioP1;P1;durP2;ratioP2;P2;SDS_P1;SDS_P2;PMS_P1;PMS_P2;Temp;Humidity;BMP_temperature;BMP_pressure;BME280_temperature;BME280_humidity;BME280_pressure;Samples;Min_cycle;Max_cycle;Signal;HPM_P1;HPM_P2
2022/12/20 00:01:08;;;;;;;14.90;9.93;;;2.50;99.90;;;;;;5070534;28;20310;-72
2022/12/20 00:03:35;;;;;;;16.83;10.10;;;2.60;99.90;;;;;;5069786;28;20208;-72
2022/12/20 00:06:02;;;;;;;16.57;10.47;;;2.50;99.90;;;;;;5070223;28;20241;-72
2022/12/20 00:08:30;;;;;;;13.17;9.57;;;2.50;99.90;;;;;;5070160;28;20204;-72
2022/12/20 00:11:00;;;;;;;16.03;10.97;;;2.60;99.90;;;;;;5070051;28;20302;-72
2022/12/20 00:13:27;;;;;;;16.77;10.73;;;2.60;99.90;;;;;;5084484;28;20217;-72
2022/12/20 00:16:05;;;;;;;14.00;10.43;;;2.60;99.90;;;;;;5090171;28;20235;-72
2022/12/20 00:18:32;;;;;;;16.23;10.83;;;2.60;99.90;;;;;;5090513;28;20195;-72
2022/12/20 00:20:59;;;;;;;16.80;10.90;;;2.60;99.90;;;;;;5090259;28;20245;-72
2022/12/20 00:23:25;;;;;;;18.27;10.97;;;2.60;99.90;;;;;;5083627;28;20214;-71
2022/12/20 00:25:59;;;;;;;15.53;10.63;;;2.60;99.90;;;;;;5069966;28;20207;-71
2022/12/20 00:28:26;;;;;;;18.57;11.47;;;2.60;99.90;;;;;;5069846;28;20200;-72
2022/12/20 00:30:54;;;;;;;15.57;10.67;;;2.60;99.90;;;;;;5069753;28;20290;-72
2022/12/20 00:33:21;;;;;;;16.40;10.30;;;2.70;99.90;;;;;;5069537;28;20215;-72
2022/12/20 00:35:48;;;;;;;18.00;11.10;;;2.60;99.90;;;;;;5069429;28;20701;-72
2022/12/20 00:38:15;;;;;;;13.63;9.77;;;2.60;99.90;;;;;;5070166;28;20282;-72
2022/12/20 00:40:41;;;;;;;14.90;10.50;;;2.60;99.90;;;;;;5068507;28;20298;-72
2022/12/20 00:43:10;;;;;;;17.77;11.00;;;2.70;99.90;;;;;;5069649;28;20289;-72
2022/12/20 00:45:36;;;;;;;16.77;10.60;;;2.70;99.90;;;;;;5069504;28;20674;-72
2022/12/20 00:48:04;;;;;;;16.47;10.53;;;2.70;99.90;;;;;;5069125;28;20327;-71
2022/12/20 00:50:31;;;;;;;16.20;9.90;;;2.70;99.90;;;;;;5076500;28;20213;-72
2022/12/20 00:52:58;;;;;;;13.27;10.10;;;2.70;99.90;;;;;;5074808;28;20237;-72
2022/12/20 00:55:24;;;;;;;14.10;10.13;;;2.70;99.90;;;;;;5069551;28;20342;-72
2022/12/20 00:57:51;;;;;;;20.20;11.00;;;2.70;99.90;;;;;;5069445;28;20235;-72
2022/12/20 01:00:20;;;;;;;13.33;9.73;;;2.70;99.90;;;;;;5069661;28;20303;-71
2022/12/20 01:02:47;;;;;;;16.07;9.80;;;2.70;99.90;;;;;;5069644;28;20214;-72
2022/12/20 01:05:14;;;;;;;14.70;10.40;;;2.70;99.90;;;;;;5068785;28;20242;-72
2022/12/20 01:07:41;;;;;;;19.60;10.63;;;2.70;99.90;;;;;;5069480;28;20576;-72
2022/12/20 01:10:09;;;;;;;17.53;10.50;;;2.70;99.90;;;;;;5086619;28;20213;-72
2022/12/20 01:12:36;;;;;;;14.53;10.47;;;2.60;99.90;;;;;;5089155;28;20672;-72
2022/12/20 01:15:03;;;;;;;18.47;9.77;;;2.60;99.90;;;;;;5089233;28;20207;-72
2022/12/20 01:17:32;;;;;;;18.20;10.70;;;2.60;99.90;;;;;;5089202;28;20591;-72
2022/12/20 01:19:59;;;;;;;17.67;11.33;;;2.60;99.90;;;;;;5089400;28;20247;-72
2022/12/20 01:22:25;;;;;;;15.07;10.30;;;2.60;99.90;;;;;;5089286;28;20357;-72
2022/12/20 01:24:52;;;;;;;16.00;10.67;;;2.60;99.90;;;;;;5088644;28;20298;-72
2022/12/20 01:27:19;;;;;;;12.20;9.80;;;2.70;99.90;;;;;;5088805;28;20684;-72
2022/12/20 01:29:46;;;;;;;15.60;10.97;;;2.70;99.90;;;;;;5088918;28;20217;-72
2022/12/20 01:32:13;;;;;;;14.03;10.17;;;2.70;99.90;;;;;;5088660;28;20207;-72
2022/12/20 01:34:41;;;;;;;16.97;10.30;;;2.70;99.90;;;;;;5088908;28;20203;-72
2022/12/20 01:37:09;;;;;;;16.67;10.70;;;2.70;99.90;;;;;;5088820;28;20983;-72
2022/12/20 01:39:35;;;;;;;17.57;10.90;;;2.70;99.90;;;;;;5088427;28;20569;-72
2022/12/20 01:42:02;;;;;;;17.57;10.97;;;2.70;99.90;;;;;;5089025;28;20205;-72
2022/12/20 01:44:58;;;;;;;16.63;10.63;;;2.70;99.90;;;;;;5088594;28;20234;-72
2022/12/20 01:47:26;;;;;;;13.87;9.73;;;2.70;99.90;;;;;;5088253;28;20787;-72
2022/12/20 01:49:57;;;;;;;15.87;10.70;;;2.70;99.90;;;;;;5069602;28;20212;-72
2022/12/20 01:52:29;;;;;;;14.33;10.53;;;2.70;99.90;;;;;;5088322;28;20616;-72
2022/12/20 01:55:04;;;;;;;16.77;10.13;;;2.70;99.90;;;;;;5088046;28;20696;-72
2022/12/20 01:57:37;;;;;;;17.60;10.57;;;2.70;99.90;;;;;;5088605;28;20462;-72
2022/12/20 02:00:07;;;;;;;13.73;9.77;;;2.80;99.90;;;;;;5088453;28;20225;-71
2022/12/20 02:02:34;;;;;;;15.80;10.73;;;2.80;99.90;;;;;;5088665;28;20238;-72
2022/12/20 02:05:03;;;;;;;14.23;9.80;;;2.70;99.90;;;;;;5081258;28;20326;-72
2022/12/20 02:07:33;;;;;;;14.33;10.57;;;2.70;99.90;;;;;;5067898;28;20293;-72
2022/12/20 02:10:02;;;;;;;14.53;10.07;;;2.70;99.90;;;;;;5087831;28;20213;-72
2022/12/20 02:12:38;;;;;;;15.10;9.73;;;2.70;99.90;;;;;;5088210;28;20291;-72
2022/12/20 02:15:19;;;;;;;12.27;9.37;;;2.70;99.90;;;;;;5074463;28;20300;-72
2022/12/20 02:17:54;;;;;;;14.53;10.00;;;2.80;99.90;;;;;;5067683;28;20314;-72
2022/12/20 02:20:54;;;;;;;15.90;10.63;;;2.70;99.90;;;;;;5073358;28;20293;-72
2022/12/20 02:24:05;;;;;;;14.17;9.43;;;2.70;99.90;;;;;;5078765;28;20202;-72
2022/12/20 02:27:10;;;;;;;15.77;10.03;;;2.70;99.90;;;;;;5088273;28;20234;-72
2022/12/20 02:29:43;;;;;;;15.53;10.47;;;2.80;99.90;;;;;;5088131;28;20198;-72
2022/12/20 02:32:17;;;;;;;14.13;9.83;;;2.80;99.90;;;;;;5087971;28;20277;-72
2022/12/20 02:34:44;;;;;;;14.87;9.97;;;2.70;99.90;;;;;;5087984;28;20278;-72
2022/12/20 02:37:11;;;;;;;13.97;10.40;;;2.80;99.90;;;;;;5087905;28;20237;-72
2022/12/20 02:39:40;;;;;;;12.43;9.23;;;2.80;99.90;;;;;;5087811;28;20199;-72
2022/12/20 02:42:10;;;;;;;16.77;11.03;;;2.80;99.90;;;;;;5087563;28;20212;-72
2022/12/20 02:47:32;;;;;;;17.57;10.60;;;2.80;99.90;;;;;;5068642;28;20245;-72
2022/12/20 02:50:00;;;;;;;13.33;10.00;;;2.80;99.90;;;;;;5069908;28;20290;-72
2022/12/20 02:52:30;;;;;;;13.73;10.33;;;2.80;99.90;;;;;;5087246;28;20306;-72
2022/12/20 02:54:57;;;;;;;14.03;10.10;;;2.80;99.90;;;;;;5087494;28;20202;-72
2022/12/20 02:57:29;;;;;;;13.83;9.90;;;2.80;99.90;;;;;;5087192;28;20706;-72
2022/12/20 03:00:01;;;;;;;13.97;9.80;;;2.80;99.90;;;;;;5087383;28;20654;-71
2022/12/20 03:03:21;;;;;;;13.27;9.97;;;2.80;99.90;;;;;;5070960;28;20207;-72
2022/12/20 03:05:21;;;;;;;15.27;10.23;;;2.80;99.90;;;;;;5066529;28;20588;-72
2022/12/20 03:07:48;;;;;;;15.63;10.53;;;2.80;99.90;;;;;;5070325;28;20203;-72
2022/12/20 03:10:15;;;;;;;15.07;10.37;;;2.80;99.90;;;;;;5087474;28;20207;-72
2022/12/20 03:12:42;;;;;;;12.67;9.27;;;2.90;99.90;;;;;;5087734;28;20289;-72
2022/12/20 03:15:10;;;;;;;11.83;9.33;;;2.90;99.90;;;;;;5087337;28;20297;-72
2022/12/20 03:17:38;;;;;;;12.37;9.00;;;2.90;99.90;;;;;;5087519;28;20230;-72
2022/12/20 03:20:07;;;;;;;14.23;10.10;;;2.90;99.90;;;;;;5086987;28;20665;-72
2022/12/20 03:22:34;;;;;;;12.70;9.30;;;3.00;99.90;;;;;;5087807;28;20207;-72
2022/12/20 03:25:01;;;;;;;14.77;9.93;;;3.10;99.90;;;;;;5067157;28;20708;-72
2022/12/20 03:27:28;;;;;;;14.50;9.97;;;3.10;99.90;;;;;;5067332;28;20311;-72
2022/12/20 03:29:55;;;;;;;13.40;9.73;;;3.20;99.90;;;;;;5067322;28;20293;-72
2022/12/20 03:32:23;;;;;;;15.00;10.23;;;3.30;99.90;;;;;;5067044;28;20213;-72
2022/12/20 03:34:51;;;;;;;13.90;9.33;;;3.20;99.90;;;;;;5066902;28;20216;-72
2022/12/20 03:37:18;;;;;;;13.07;9.03;;;3.20;99.90;;;;;;5066670;28;20224;-72
2022/12/20 03:39:45;;;;;;;11.53;8.60;;;3.10;99.90;;;;;;5066680;28;20740;-72
2022/12/20 03:42:11;;;;;;;12.97;9.07;;;3.00;99.90;;;;;;5085073;28;20708;-72
2022/12/20 03:44:38;;;;;;;11.17;9.60;;;3.10;99.90;;;;;;5086786;28;20673;-71
2022/12/20 03:47:05;;;;;;;13.40;9.50;;;3.00;99.90;;;;;;5083454;28;20757;-72
2022/12/20 03:49:32;;;;;;;11.67;9.27;;;3.00;99.90;;;;;;5066753;28;20303;-72
2022/12/20 03:52:01;;;;;;;11.27;9.27;;;3.00;99.90;;;;;;5086110;28;20287;-72
2022/12/20 03:54:27;;;;;;;13.63;9.80;;;3.00;99.90;;;;;;5086751;28;20212;-72
2022/12/20 03:56:54;;;;;;;13.00;9.37;;;3.00;99.90;;;;;;5085559;28;20309;-72
2022/12/20 03:59:21;;;;;;;13.37;9.70;;;3.00;99.90;;;;;;5066708;28;20302;-72
2022/12/20 04:01:48;;;;;;;12.97;9.33;;;3.00;99.90;;;;;;5080737;28;20199;-72
2022/12/20 04:04:15;;;;;;;14.97;9.93;;;3.00;99.90;;;;;;5086726;28;20230;-72
2022/12/20 04:06:42;;;;;;;13.43;9.47;;;3.10;99.90;;;;;;5087137;28;20669;-72
2022/12/20 04:09:11;;;;;;;12.37;9.70;;;3.20;99.90;;;;;;5086663;28;20309;-72
2022/12/20 04:11:38;;;;;;;13.73;9.70;;;3.10;99.90;;;;;;5086507;28;20724;-72
2022/12/20 04:14:05;;;;;;;11.53;9.53;;;3.10;99.90;;;;;;5086903;28;20217;-72
2022/12/20 04:16:33;;;;;;;13.27;8.63;;;3.10;99.90;;;;;;5090453;28;20206;-72
2022/12/20 04:18:59;;;;;;;12.90;9.37;;;3.10;99.90;;;;;;5090513;28;20234;-72
2022/12/20 04:21:28;;;;;;;11.60;9.23;;;3.10;99.90;;;;;;5090199;28;20203;-72
2022/12/20 04:23:55;;;;;;;11.30;8.97;;;3.00;99.90;;;;;;5079220;28;20673;-72
2022/12/20 04:26:24;;;;;;;13.27;9.77;;;3.10;99.90;;;;;;5069619;28;20315;-72
2022/12/20 04:28:51;;;;;;;12.27;8.97;;;3.10;99.90;;;;;;5069821;28;20670;-72
2022/12/20 04:31:18;;;;;;;11.67;9.20;;;3.10;99.90;;;;;;5069745;28;20678;-72
2022/12/20 04:33:45;;;;;;;12.27;8.87;;;3.10;99.90;;;;;;5069907;28;20331;-72
2022/12/20 04:36:12;;;;;;;11.23;8.27;;;3.10;99.90;;;;;;5069645;28;20294;-72
2022/12/20 04:38:39;;;;;;;11.87;8.93;;;3.10;99.90;;;;;;5069669;28;20329;-72
2022/12/20 04:41:06;;;;;;;11.23;9.07;;;3.10;99.90;;;;;;5069582;28;20214;-72
2022/12/20 04:43:34;;;;;;;12.87;9.27;;;3.10;99.90;;;;;;5069918;28;20282;-72
2022/12/20 04:46:04;;;;;;;12.17;8.97;;;3.10;99.90;;;;;;5069682;28;20208;-72
2022/12/20 04:48:30;;;;;;;12.87;9.60;;;3.00;99.90;;;;;;5069618;28;20231;-72
2022/12/20 04:50:57;;;;;;;12.37;9.70;;;3.00;99.90;;;;;;5080634;28;20249;-72
2022/12/20 04:56:09;;;;;;;13.50;9.83;;;3.10;99.90;;;;;;5068919;28;20254;-72
2022/12/20 04:58:37;;;;;;;13.43;9.17;;;3.10;99.90;;;;;;5088011;28;20804;-72
2022/12/20 05:01:04;;;;;;;13.27;9.80;;;3.10;99.90;;;;;;5089740;28;20292;-72
2022/12/20 05:03:31;;;;;;;11.33;9.50;;;3.10;99.90;;;;;;5089949;28;20211;-72
2022/12/20 05:05:58;;;;;;;11.90;8.73;;;3.10;99.90;;;;;;5089538;28;20246;-72
2022/12/20 05:08:25;;;;;;;14.00;8.70;;;3.10;99.90;;;;;;5089645;28;20252;-72
2022/12/20 05:10:52;;;;;;;12.60;9.23;;;3.10;99.90;;;;;;5089314;28;20293;-72
2022/12/20 05:13:19;;;;;;;11.50;9.40;;;3.10;99.90;;;;;;5089830;28;20290;-72
2022/12/20 05:15:51;;;;;;;12.03;9.47;;;3.10;99.90;;;;;;5089619;28;20202;-72
2022/12/20 05:18:17;;;;;;;12.20;9.30;;;3.20;99.90;;;;;;5089534;28;20226;-72
2022/12/20 05:20:44;;;;;;;15.60;9.60;;;3.10;99.90;;;;;;5089217;28;20213;-72
2022/12/20 05:28:40;;;;;;;11.57;8.57;;;3.20;99.90;;;;;;5069001;28;20186;-72
2022/12/20 05:31:09;;;;;;;12.70;8.97;;;3.10;99.90;;;;;;5068959;28;20203;-72
2022/12/20 05:33:36;;;;;;;10.70;9.10;;;3.20;99.90;;;;;;5078210;28;20290;-72
2022/12/20 05:36:03;;;;;;;12.67;9.13;;;3.20;99.90;;;;;;5071410;28;20246;-72
2022/12/20 05:38:29;;;;;;;12.00;8.80;;;3.20;99.90;;;;;;5068313;28;20673;-72
2022/12/20 05:40:56;;;;;;;13.27;9.57;;;3.20;99.90;;;;;;5068702;28;20264;-72
2022/12/20 05:43:23;;;;;;;14.33;9.60;;;3.20;99.90;;;;;;5068758;28;20235;-72
2022/12/20 05:45:52;;;;;;;12.27;9.40;;;3.30;99.90;;;;;;5068251;28;20214;-72
2022/12/20 05:48:21;;;;;;;12.30;9.20;;;3.30;99.90;;;;;;5067883;28;20227;-71
2022/12/20 05:50:48;;;;;;;11.73;9.00;;;3.40;99.90;;;;;;5081262;28;20209;-72
2022/12/20 05:53:16;;;;;;;11.77;8.57;;;3.40;99.90;;;;;;5088529;28;20311;-72
2022/12/20 05:55:45;;;;;;;14.03;8.83;;;3.40;99.90;;;;;;5088159;28;20213;-72
2022/12/20 05:58:13;;;;;;;12.23;8.53;;;3.40;99.90;;;;;;5088146;28;20345;-72
2022/12/20 06:00:40;;;;;;;12.83;9.33;;;3.30;99.90;;;;;;5088875;28;20211;-72
2022/12/20 06:03:09;;;;;;;13.30;9.13;;;3.30;99.90;;;;;;5088461;28;20214;-72
2022/12/20 06:05:37;;;;;;;14.17;8.93;;;3.30;99.90;;;;;;5088407;28;20577;-72
2022/12/20 06:08:05;;;;;;;12.77;9.20;;;3.40;99.90;;;;;;5088460;28;20297;-72
2022/12/20 06:10:33;;;;;;;11.77;9.00;;;3.30;99.90;;;;;;5088198;28;20298;-72
2022/12/20 06:13:01;;;;;;;12.20;9.17;;;3.30;99.90;;;;;;5088386;28;20203;-72
2022/12/20 06:15:28;;;;;;;11.33;8.77;;;3.40;99.90;;;;;;5087685;28;20198;-72
2022/12/20 06:17:54;;;;;;;12.20;8.63;;;3.40;99.90;;;;;;5087970;28;20680;-72
2022/12/20 06:20:21;;;;;;;13.00;9.43;;;3.30;99.90;;;;;;5087906;28;20643;-72
2022/12/20 06:22:50;;;;;;;13.13;9.07;;;3.30;99.90;;;;;;5086703;28;20289;-72
2022/12/20 06:25:16;;;;;;;15.17;9.30;;;3.40;99.90;;;;;;5067340;28;20290;-72
2022/12/20 06:27:43;;;;;;;11.83;8.77;;;3.40;99.90;;;;;;5067784;28;20289;-72
2022/12/20 06:30:11;;;;;;;12.33;9.10;;;3.40;99.90;;;;;;5079552;28;20292;-72
2022/12/20 06:32:38;;;;;;;11.37;8.80;;;3.40;99.90;;;;;;5087583;28;20243;-73
2022/12/20 06:35:06;;;;;;;10.37;8.67;;;3.40;99.90;;;;;;5087743;28;20951;-72
2022/12/20 06:37:33;;;;;;;11.57;8.67;;;3.40;99.90;;;;;;5087657;28;20207;-72
2022/12/20 06:40:02;;;;;;;11.40;8.63;;;3.40;99.90;;;;;;5086404;28;20756;-72
2022/12/20 06:42:29;;;;;;;10.33;9.17;;;3.40;99.90;;;;;;5087494;28;20297;-72
2022/12/20 06:44:56;;;;;;;10.60;8.80;;;3.40;99.90;;;;;;5087726;28;20302;-72
2022/12/20 06:47:23;;;;;;;12.17;9.17;;;3.40;99.90;;;;;;5087142;28;20329;-72
2022/12/20 06:49:49;;;;;;;11.57;9.03;;;3.40;99.90;;;;;;5087429;28;20518;-72
2022/12/20 06:52:16;;;;;;;15.23;10.03;;;3.40;99.90;;;;;;5087328;28;20866;-72
2022/12/20 06:54:43;;;;;;;12.97;9.63;;;3.50;99.90;;;;;;5087043;28;20748;-72
2022/12/20 06:57:11;;;;;;;11.63;9.10;;;3.40;99.90;;;;;;5087284;28;20660;-72
2022/12/20 06:59:38;;;;;;;11.73;9.13;;;3.40;99.90;;;;;;5087662;28;20321;-72
2022/12/20 07:02:05;;;;;;;12.10;8.80;;;3.40;99.90;;;;;;5087549;28;20242;-72
2022/12/20 07:04:32;;;;;;;11.50;9.30;;;3.40;99.90;;;;;;5087602;28;20290;-72
2022/12/20 07:06:59;;;;;;;14.93;8.97;;;3.40;99.90;;;;;;5087697;28;20400;-72
2022/12/20 07:09:26;;;;;;;13.67;9.60;;;3.40;99.90;;;;;;5087305;28;20486;-72
2022/12/20 07:11:53;;;;;;;10.10;8.97;;;3.50;99.90;;;;;;5087550;28;20293;-71
2022/12/20 07:14:21;;;;;;;12.93;9.77;;;3.60;99.90;;;;;;5087367;28;20688;-72
2022/12/20 07:16:48;;;;;;;11.87;9.10;;;3.60;99.90;;;;;;5087642;28;20237;-72
2022/12/20 07:19:16;;;;;;;11.43;9.37;;;3.60;99.90;;;;;;5087501;28;20235;-72
2022/12/20 07:21:43;;;;;;;11.93;8.93;;;3.60;99.90;;;;;;5087563;28;20206;-72
2022/12/20 07:24:10;;;;;;;12.17;9.27;;;3.80;99.90;;;;;;5074316;28;20250;-72
2022/12/20 07:26:37;;;;;;;12.23;9.27;;;3.80;99.90;;;;;;5079404;28;20294;-72
2022/12/20 07:29:05;;;;;;;11.47;9.90;;;3.80;99.90;;;;;;5066986;28;20261;-72
2022/12/20 07:31:33;;;;;;;12.20;10.00;;;3.70;99.90;;;;;;5067143;28;20210;-72
2022/12/20 07:34:00;;;;;;;11.53;8.83;;;3.70;99.90;;;;;;5067212;28;20211;-72
2022/12/20 07:36:27;;;;;;;11.83;8.67;;;3.70;99.90;;;;;;5066779;28;20286;-72
2022/12/20 07:38:54;;;;;;;11.90;9.30;;;3.60;99.90;;;;;;5066953;28;20351;-72
2022/12/20 07:41:21;;;;;;;13.53;9.33;;;3.60;99.90;;;;;;5066763;28;20242;-72
2022/12/20 07:43:48;;;;;;;12.03;9.50;;;3.60;99.90;;;;;;5083627;28;20226;-72
2022/12/20 07:46:15;;;;;;;13.77;9.10;;;3.60;99.90;;;;;;5077533;28;20743;-72
2022/12/20 07:48:44;;;;;;;11.10;9.30;;;3.50;99.90;;;;;;5066775;28;20311;-72
2022/12/20 07:51:15;;;;;;;11.50;8.93;;;3.50;99.90;;;;;;5069560;28;20294;-72
2022/12/20 07:53:47;;;;;;;11.93;8.87;;;3.50;99.90;;;;;;5070909;28;20191;-72
2022/12/20 07:56:15;;;;;;;12.50;9.67;;;3.50;99.90;;;;;;5070432;28;20565;-72
2022/12/20 07:58:43;;;;;;;13.20;9.63;;;3.50;99.90;;;;;;5070653;28;20528;-72
2022/12/20 08:01:12;;;;;;;12.57;9.40;;;3.50;99.90;;;;;;5070438;28;20314;-72
2022/12/20 08:03:45;;;;;;;14.27;9.93;;;3.50;99.90;;;;;;5070564;28;20207;-72
2022/12/20 08:06:13;;;;;;;12.47;9.57;;;3.50;99.90;;;;;;5070453;28;20198;-72
2022/12/20 08:08:51;;;;;;;15.83;10.03;;;3.50;99.90;;;;;;5070007;28;20246;-72
2022/12/20 08:11:20;;;;;;;10.90;9.33;;;3.50;99.90;;;;;;5070114;28;20196;-73
2022/12/20 08:13:48;;;;;;;13.73;10.03;;;3.50;99.90;;;;;;5070410;28;20290;-72
2022/12/20 08:16:15;;;;;;;12.63;8.97;;;3.50;99.90;;;;;;5070225;28;20214;-72
2022/12/20 08:18:43;;;;;;;14.87;10.07;;;3.50;99.90;;;;;;5070151;28;20362;-72
2022/12/20 08:21:11;;;;;;;14.03;9.80;;;3.50;99.90;;;;;;5082217;28;20306;-72
2022/12/20 08:23:38;;;;;;;15.70;9.80;;;3.60;99.90;;;;;;5070561;28;20295;-72
2022/12/20 08:26:05;;;;;;;15.13;10.13;;;3.50;99.90;;;;;;5069657;28;20298;-72
2022/12/20 08:28:32;;;;;;;17.40;10.60;;;3.60;99.90;;;;;;5070181;28;20242;-72
2022/12/20 08:31:02;;;;;;;11.10;9.60;;;3.60;99.90;;;;;;5069905;28;20693;-72
2022/12/20 08:33:29;;;;;;;17.03;10.20;;;3.60;99.90;;;;;;5069591;28;20563;-72
2022/12/20 08:36:02;;;;;;;18.57;10.30;;;3.60;99.90;;;;;;5070074;28;20290;-72
2022/12/20 08:38:30;;;;;;;16.53;10.60;;;3.60;99.90;;;;;;5073326;28;20720;-72
2022/12/20 08:41:02;;;;;;;15.73;10.60;;;3.60;99.90;;;;;;5089856;28;20202;-72
2022/12/20 08:43:29;;;;;;;17.27;11.67;;;3.60;99.90;;;;;;5072220;28;20200;-72
2022/12/20 08:45:56;;;;;;;20.27;11.03;;;3.80;99.90;;;;;;5077605;28;20574;-72
2022/12/20 08:48:23;;;;;;;18.70;11.13;;;3.80;99.90;;;;;;5075753;28;20258;-72
2022/12/20 08:50:55;;;;;;;16.53;10.83;;;3.80;99.90;;;;;;5078998;28;20293;-72
2022/12/20 08:53:24;;;;;;;22.33;10.73;;;3.80;99.90;;;;;;5089896;28;20203;-72
2022/12/20 08:55:51;;;;;;;16.83;10.90;;;3.80;99.90;;;;;;5089511;28;20219;-72
2022/12/20 08:58:18;;;;;;;15.07;11.43;;;3.80;99.90;;;;;;5089439;28;20681;-72
2022/12/20 09:00:45;;;;;;;16.37;11.13;;;3.80;99.90;;;;;;5089550;28;20289;-72
2022/12/20 09:03:12;;;;;;;13.90;10.40;;;3.80;99.90;;;;;;5088737;28;20649;-72
2022/12/20 09:05:45;;;;;;;19.67;10.93;;;3.80;99.90;;;;;;5089790;28;20680;-72
2022/12/20 09:08:12;;;;;;;15.23;10.60;;;3.90;99.90;;;;;;5089709;28;20195;-72
2022/12/20 09:10:40;;;;;;;16.50;10.67;;;3.90;99.90;;;;;;5089204;28;20823;-72
2022/12/20 09:13:07;;;;;;;17.83;10.10;;;3.90;99.90;;;;;;5089243;28;20994;-72
2022/12/20 09:15:34;;;;;;;15.87;10.47;;;4.00;99.90;;;;;;5089375;28;20611;-72
2022/12/20 09:18:01;;;;;;;15.63;11.10;;;4.00;99.90;;;;;;5089608;28;20285;-72
2022/12/20 09:20:29;;;;;;;15.63;11.37;;;4.00;99.90;;;;;;5089081;28;20668;-72
2022/12/20 09:22:56;;;;;;;18.17;11.37;;;4.00;99.90;;;;;;5088955;28;20203;-72
2022/12/20 09:25:23;;;;;;;15.47;11.00;;;4.00;99.90;;;;;;5089109;28;20230;-72
2022/12/20 09:27:51;;;;;;;15.73;10.70;;;4.00;99.90;;;;;;5089267;28;20286;-72
2022/12/20 09:30:18;;;;;;;17.93;11.50;;;4.10;99.90;;;;;;5089129;28;20203;-72
2022/12/20 09:32:45;;;;;;;14.80;11.10;;;4.10;99.90;;;;;;5089220;28;20290;-72
2022/12/20 09:35:12;;;;;;;23.10;12.33;;;4.20;99.90;;;;;;5080891;28;20670;-72
2022/12/20 09:37:40;;;;;;;19.20;11.80;;;4.20;99.90;;;;;;5068909;28;20286;-72
2022/12/20 09:40:10;;;;;;;17.87;12.53;;;4.30;99.90;;;;;;5088604;28;20956;-72
2022/12/20 09:42:37;;;;;;;20.30;12.67;;;4.40;99.90;;;;;;5088993;28;20281;-72
2022/12/20 09:45:09;;;;;;;15.37;11.87;;;4.40;99.90;;;;;;5089242;28;20310;-72
2022/12/20 09:47:38;;;;;;;16.33;11.67;;;4.40;99.90;;;;;;5081322;28;20323;-72
2022/12/20 09:50:06;;;;;;;14.77;11.07;;;4.40;99.90;;;;;;5071402;28;20293;-72
2022/12/20 09:52:46;;;;;;;16.37;10.80;;;4.40;99.90;;;;;;5088505;28;20260;-72
2022/12/20 09:55:23;;;;;;;14.20;10.33;;;4.40;99.90;;;;;;5088110;28;20247;-72
2022/12/20 09:58:14;;;;;;;14.17;10.80;;;4.40;99.90;;;;;;5088551;28;20205;-72
2022/12/20 10:00:46;;;;;;;16.43;9.87;;;4.40;99.90;;;;;;5088585;28;20227;-72
2022/12/20 10:03:19;;;;;;;15.70;11.07;;;4.40;99.90;;;;;;5088481;28;20278;-72
2022/12/20 10:05:51;;;;;;;16.30;11.20;;;4.40;99.90;;;;;;5088475;28;20227;-72
2022/12/20 10:08:28;;;;;;;19.80;11.23;;;4.50;99.90;;;;;;5088505;28;20297;-72
2022/12/20 10:10:58;;;;;;;17.03;11.47;;;4.50;99.90;;;;;;5087900;28;20197;-72
2022/12/20 10:13:41;;;;;;;17.80;11.13;;;4.60;99.90;;;;;;5088192;28;20569;-72
2022/12/20 10:16:18;;;;;;;14.37;10.97;;;4.50;99.90;;;;;;5075312;28;20650;-72
2022/12/20 10:19:00;;;;;;;16.07;10.67;;;4.50;99.90;;;;;;5088066;28;20199;-72
2022/12/20 10:21:34;;;;;;;14.53;10.93;;;4.50;99.90;;;;;;5087907;28;20301;-72
2022/12/20 10:24:03;;;;;;;15.53;10.70;;;4.50;99.90;;;;;;5088161;28;20293;-72
2022/12/20 10:26:32;;;;;;;15.27;10.43;;;4.50;99.90;;;;;;5087723;28;20633;-72
2022/12/20 10:29:00;;;;;;;15.67;10.90;;;4.40;99.90;;;;;;5088144;28;20688;-72
2022/12/20 10:31:28;;;;;;;13.77;10.30;;;4.50;99.90;;;;;;5087276;28;20238;-72
2022/12/20 10:33:56;;;;;;;14.07;10.07;;;4.60;99.90;;;;;;5087304;28;20263;-72
2022/12/20 10:36:26;;;;;;;13.73;10.27;;;4.50;99.90;;;;;;5087663;28;20202;-72
2022/12/20 10:38:57;;;;;;;13.03;9.63;;;4.60;99.90;;;;;;5087356;28;20560;-72
2022/12/20 10:41:26;;;;;;;14.53;9.87;;;4.60;99.90;;;;;;5087645;28;20203;-72
2022/12/20 10:43:58;;;;;;;13.47;10.50;;;4.60;99.90;;;;;;5087556;28;20210;-72
2022/12/20 10:46:35;;;;;;;16.73;10.13;;;4.70;99.90;;;;;;5087645;28;20202;-72
2022/12/20 10:49:23;;;;;;;14.83;10.00;;;4.70;99.90;;;;;;5067897;28;20239;-72
2022/12/20 10:51:52;;;;;;;13.80;10.00;;;4.70;99.90;;;;;;5067492;28;20211;-72
2022/12/20 10:54:24;;;;;;;13.07;10.00;;;4.80;99.90;;;;;;5067009;28;20203;-72
2022/12/20 10:56:56;;;;;;;13.27;9.93;;;4.80;99.90;;;;;;5067475;28;20284;-72
2022/12/20 10:59:29;;;;;;;13.93;10.27;;;4.90;99.90;;;;;;5066985;28;20227;-72
2022/12/20 11:01:58;;;;;;;13.60;10.07;;;4.90;99.90;;;;;;5067621;28;20276;-72
2022/12/20 11:04:28;;;;;;;15.53;9.83;;;4.90;99.90;;;;;;5067413;28;20306;-72
2022/12/20 11:06:55;;;;;;;16.67;10.57;;;4.90;99.90;;;;;;5067138;28;20298;-72
2022/12/20 11:09:31;;;;;;;11.50;9.63;;;4.80;99.90;;;;;;5067370;28;20214;-72
2022/12/20 11:12:03;;;;;;;12.13;9.20;;;4.90;99.90;;;;;;5079725;28;20290;-72
2022/12/20 11:14:32;;;;;;;12.70;9.97;;;4.90;99.90;;;;;;5067072;28;20233;-72
2022/12/20 11:17:05;;;;;;;12.50;9.73;;;4.90;99.90;;;;;;5067621;28;20214;-72
2022/12/20 11:19:48;;;;;;;14.43;10.20;;;5.00;99.90;;;;;;5067724;28;20226;-72
2022/12/20 11:22:29;;;;;;;13.77;9.57;;;5.00;99.90;;;;;;5067280;28;20282;-72
2022/12/20 11:25:10;;;;;;;11.20;8.93;;;5.00;99.90;;;;;;5086887;28;20209;-72
2022/12/20 11:27:44;;;;;;;13.40;9.30;;;5.10;99.90;;;;;;5091720;28;20290;-72
2022/12/20 11:30:19;;;;;;;12.70;9.07;;;5.00;99.90;;;;;;5091175;28;20217;-72
2022/12/20 11:33:21;;;;;;;10.70;8.70;;;5.10;99.90;;;;;;5091572;28;20280;-72
2022/12/20 11:35:55;;;;;;;11.63;8.77;;;5.10;99.90;;;;;;5073640;28;20210;-72
2022/12/20 11:38:40;;;;;;;11.80;8.90;;;5.20;99.90;;;;;;5071182;28;20192;-72
2022/12/20 11:41:22;;;;;;;9.87;8.67;;;5.20;99.90;;;;;;5070258;28;20728;-72
2022/12/20 11:44:06;;;;;;;12.07;8.67;;;5.30;99.90;;;;;;5070725;28;20188;-72
2022/12/20 11:46:46;;;;;;;12.63;8.90;;;5.30;99.90;;;;;;5071022;28;20625;-72
2022/12/20 11:49:37;;;;;;;11.37;8.87;;;5.30;99.90;;;;;;5070553;28;20282;-72
2022/12/20 11:52:15;;;;;;;10.07;8.77;;;5.40;99.90;;;;;;5090309;28;20295;-72
2022/12/20 11:54:47;;;;;;;10.17;8.37;;;5.40;99.90;;;;;;5090526;28;20191;-72
2022/12/20 11:57:18;;;;;;;10.67;8.63;;;5.40;99.90;;;;;;5090803;28;20317;-72
2022/12/20 11:59:51;;;;;;;9.97;8.57;;;5.30;99.90;;;;;;5090752;28;20234;-72
2022/12/20 12:02:25;;;;;;;11.13;8.93;;;5.40;99.90;;;;;;5090626;28;20195;-72
2022/12/20 12:04:59;;;;;;;9.57;8.47;;;5.50;99.90;;;;;;5090750;28;20195;-72
2022/12/20 12:07:31;;;;;;;10.83;8.50;;;5.60;99.90;;;;;;5090268;28;20203;-72
2022/12/20 12:10:02;;;;;;;9.60;8.37;;;5.60;99.90;;;;;;5071504;28;21043;-72
2022/12/20 12:12:34;;;;;;;9.40;8.40;;;5.60;99.90;;;;;;5070207;28;20626;-72
2022/12/20 12:15:04;;;;;;;10.03;8.57;;;5.70;99.90;;;;;;5070551;28;20292;-72
2022/12/20 12:17:38;;;;;;;9.83;8.17;;;5.70;99.90;;;;;;5070335;28;20286;-72
2022/12/20 12:20:21;;;;;;;9.27;7.87;;;5.80;99.90;;;;;;5072956;28;20897;-72
2022/12/20 12:22:53;;;;;;;8.53;7.57;;;5.80;99.90;;;;;;5090374;28;20281;-73
2022/12/20 12:25:20;;;;;;;10.80;8.47;;;5.80;99.90;;;;;;5089674;28;20290;-72
2022/12/20 12:27:47;;;;;;;9.17;8.03;;;5.80;99.90;;;;;;5090023;28;20680;-72
2022/12/20 12:30:15;;;;;;;8.20;7.33;;;5.80;99.90;;;;;;5090158;28;20234;-72
2022/12/20 12:32:47;;;;;;;13.10;8.57;;;5.80;99.90;;;;;;5090319;28;20211;-72
2022/12/20 12:35:46;;;;;;;8.83;7.80;;;5.70;99.90;;;;;;5089764;28;21087;-72
2022/12/20 12:38:33;;;;;;;9.40;8.07;;;5.70;99.90;;;;;;5089278;28;20278;-72
2022/12/20 12:41:27;;;;;;;9.30;7.80;;;5.80;99.90;;;;;;5089463;28;20218;-72
2022/12/20 12:43:55;;;;;;;9.57;7.90;;;5.80;99.90;;;;;;5087583;28;20293;-72
2022/12/20 12:46:27;;;;;;;8.47;7.60;;;5.80;99.90;;;;;;5089624;28;20242;-72
2022/12/20 12:49:00;;;;;;;8.83;7.60;;;5.70;99.90;;;;;;5071486;28;20318;-72
2022/12/20 12:51:31;;;;;;;9.50;7.90;;;5.70;99.90;;;;;;5084238;28;20230;-72
2022/12/20 12:54:19;;;;;;;9.97;8.17;;;5.70;99.90;;;;;;5089485;28;20230;-72
2022/12/20 12:56:47;;;;;;;8.63;7.70;;;5.70;99.90;;;;;;5089527;28;20333;-72
2022/12/20 12:59:38;;;;;;;10.40;8.37;;;5.70;99.90;;;;;;5089823;28;20293;-72
2022/12/20 13:02:34;;;;;;;10.33;8.07;;;5.70;99.90;;;;;;5079233;28;20309;-72
2022/12/20 13:05:16;;;;;;;9.27;7.63;;;5.70;99.90;;;;;;5089414;28;20294;-72
2022/12/20 13:07:43;;;;;;;10.73;7.67;;;5.70;99.90;;;;;;5089265;28;20207;-72
2022/12/20 13:10:43;;;;;;;9.27;7.73;;;5.70;99.90;;;;;;5089346;28;20310;-72